createdAt,value
2022-12-07T08:34:54.190Z,99843.94
2022-12-07T08:37:20.868Z,99844.38
2022-12-07T08:39:47.606Z,99839.53
2022-12-07T08:42:14.324Z,99841.31
2022-12-07T08:44:41.696Z,99844.78
2022-12-07T08:47:10.508Z,99826.84
2022-12-07T08:49:41.946Z,99834.88
2022-12-07T08:52:08.671Z,99827.34
2022-12-07T08:54:37.860Z,99835.09
2022-12-07T08:57:05.222Z,99828.97
2022-12-07T08:59:33.240Z,99830.19
2022-12-07T09:01:59.988Z,99840.81
2022-12-07T09:04:26.757Z,99834.91
2022-12-07T09:06:54.833Z,99841.75
2022-12-07T09:09:21.473Z,99841.88
2022-12-07T09:11:48.283Z,99835.88
2022-12-07T09:14:14.998Z,99843.94
2022-12-07T09:16:41.685Z,99830.81
2022-12-07T09:19:09.361Z,99813.59
2022-12-07T09:21:36.061Z,99824.13
2022-12-07T09:24:02.936Z,99831.22
2022-12-07T09:26:29.604Z,99827.09
2022-12-07T09:28:56.374Z,99818.47
2022-12-07T09:31:25.206Z,99820.59
2022-12-07T09:34:00.541Z,99818.88
2022-12-07T09:36:28.375Z,99820.38
2022-12-07T09:38:55.312Z,99806.69
2022-12-07T09:41:24.959Z,99807.03
2022-12-07T09:43:52.696Z,99808.88
2022-12-07T09:46:21.424Z,99790.00
2022-12-07T09:48:49.475Z,99799.06
2022-12-07T09:51:25.109Z,99798.25
2022-12-07T09:53:57.466Z,99789.34
2022-12-07T09:56:25.042Z,99794.81
2022-12-07T09:58:58.864Z,99790.09
2022-12-07T10:01:25.620Z,99768.28
2022-12-07T10:04:23.338Z,99781.47
2022-12-07T10:06:52.294Z,99777.53
2022-12-07T10:09:22.947Z,99784.16
2022-12-07T10:12:04.986Z,99776.06
2022-12-07T10:15:05.432Z,99779.22
2022-12-07T10:17:44.773Z,99771.50
2022-12-07T10:20:23.535Z,99776.41
2022-12-07T10:23:06.035Z,99765.22
2022-12-07T10:25:35.881Z,99774.88
2022-12-07T10:28:09.417Z,99769.97
2022-12-07T10:30:58.062Z,99778.75
2022-12-07T10:33:39.897Z,99750.28
2022-12-07T10:36:28.507Z,99776.91
2022-12-07T10:39:01.823Z,99776.53
2022-12-07T10:41:28.701Z,99776.69
2022-12-07T10:43:57.792Z,99777.16
2022-12-07T10:46:39.885Z,99767.91
2022-12-07T10:49:28.313Z,99767.88
2022-12-07T10:52:00.523Z,99766.25
2022-12-07T10:55:14.607Z,99766.25
2022-12-07T10:58:05.978Z,99762.34
2022-12-07T11:00:43.930Z,99753.78
2022-12-07T11:03:25.698Z,99756.03
2022-12-07T11:06:02.111Z,99756.06
2022-12-07T11:08:37.778Z,99752.31
2022-12-07T11:11:13.529Z,99753.44
2022-12-07T11:13:58.307Z,99747.84
2022-12-07T11:16:37.099Z,99744.97
2022-12-07T11:19:15.387Z,99741.59
2022-12-07T11:21:56.871Z,99741.06
2022-12-07T11:24:50.925Z,99722.06
2022-12-07T11:27:38.471Z,99720.56
2022-12-07T11:30:50.136Z,99720.59
2022-12-07T11:33:21.637Z,99720.66
2022-12-07T11:36:02.767Z,99724.38
2022-12-07T11:38:53.431Z,99719.84
2022-12-07T11:41:28.029Z,99723.97
2022-12-07T11:44:07.902Z,99726.97
2022-12-07T11:46:48.391Z,99715.34
2022-12-07T11:49:24.127Z,99709.38
2022-12-07T11:51:54.373Z,99704.84
2022-12-07T11:54:27.932Z,99703.88
2022-12-07T11:56:58.168Z,99702.09
2022-12-07T11:59:39.201Z,99697.50
2022-12-07T12:02:40.145Z,99698.75
2022-12-07T12:05:14.646Z,99684.97
2022-12-07T12:10:47.224Z,99689.66
2022-12-07T12:16:11.064Z,99683.19
2022-12-07T12:18:56.011Z,99677.53
2022-12-07T12:21:31.085Z,99676.81
2022-12-07T12:24:04.336Z,99678.66
2022-12-07T12:26:34.249Z,99684.94
2022-12-07T12:29:04.525Z,99659.75
2022-12-07T12:31:40.692Z,99686.63
2022-12-07T12:34:30.726Z,99666.91
2022-12-07T12:36:57.491Z,99680.56
2022-12-07T12:39:24.453Z,99675.22
2022-12-07T12:41:51.054Z,99671.69
2022-12-07T12:44:20.829Z,99667.09
2022-12-07T12:46:50.436Z,99659.25
2022-12-07T12:49:17.353Z,99664.63
2022-12-07T12:51:50.161Z,99658.88
2022-12-07T12:54:19.652Z,99658.56
2022-12-07T12:57:14.689Z,99655.84
2022-12-07T12:59:53.483Z,99650.72
2022-12-07T13:02:39.330Z,99652.84
2022-12-07T13:05:11.112Z,99649.69
2022-12-07T13:07:51.031Z,99648.16
2022-12-07T13:10:35.940Z,99651.31
2022-12-07T13:13:15.195Z,99645.72
2022-12-07T13:15:49.076Z,99645.22
2022-12-07T13:18:33.747Z,99644.25
2022-12-07T13:21:02.516Z,99635.66
2022-12-07T13:23:31.604Z,99641.28
2022-12-07T13:26:05.282Z,99647.38
2022-12-07T13:28:40.605Z,99641.78
2022-12-07T13:31:29.160Z,99647.28
2022-12-07T13:33:55.874Z,99642.41
2022-12-07T13:36:36.680Z,99634.25
2022-12-07T13:39:15.193Z,99639.97
2022-12-07T13:41:45.312Z,99629.59
2022-12-07T13:44:14.667Z,99638.31
2022-12-07T13:47:04.928Z,99640.91
2022-12-07T13:49:33.834Z,99643.50
2022-12-07T13:52:25.427Z,99639.84
2022-12-07T13:55:07.336Z,99632.94
2022-12-07T13:57:37.158Z,99640.97
2022-12-07T14:00:06.572Z,99649.13
2022-12-07T14:02:37.900Z,99653.06
2022-12-07T14:05:13.654Z,99643.03
2022-12-07T14:08:12.610Z,99644.03
2022-12-07T14:10:55.990Z,99645.41
2022-12-07T14:13:38.874Z,99647.84
2022-12-07T14:16:07.656Z,99650.81
2022-12-07T14:18:40.311Z,99648.41
2022-12-07T14:21:23.687Z,99650.69
2022-12-07T14:24:08.743Z,99645.59
2022-12-07T14:26:35.686Z,99648.44
2022-12-07T14:29:20.751Z,99652.31
2022-12-07T14:31:47.597Z,99646.81
2022-12-07T14:34:14.631Z,99652.34
2022-12-07T14:36:41.354Z,99640.72
2022-12-07T14:39:13.081Z,99647.44
2022-12-07T14:41:52.765Z,99651.13
2022-12-07T14:44:28.032Z,99635.97
2022-12-07T14:49:43.174Z,99650.28
2022-12-07T14:55:06.064Z,99654.41
2022-12-07T14:57:32.979Z,99651.72
2022-12-07T14:59:59.651Z,99655.78
2022-12-07T15:02:26.371Z,99663.00
2022-12-07T15:04:53.091Z,99658.44
2022-12-07T15:07:22.024Z,99656.41
2022-12-07T15:09:49.794Z,99654.63
2022-12-07T15:12:16.542Z,99645.41
2022-12-07T15:14:43.306Z,99643.41
2022-12-07T15:17:24.753Z,99644.41
2022-12-07T15:19:56.521Z,99647.69
2022-12-07T15:22:23.289Z,99647.47
2022-12-07T15:24:49.981Z,99637.03
2022-12-07T15:27:16.712Z,99645.03
2022-12-07T15:29:43.482Z,99640.72
2022-12-07T15:32:10.257Z,99639.31
2022-12-07T15:34:40.382Z,99650.53
2022-12-07T15:37:08.758Z,99654.81
2022-12-07T15:39:37.333Z,99659.53
2022-12-07T15:42:04.279Z,99667.88
2022-12-07T15:44:49.496Z,99670.31
2022-12-07T15:47:16.208Z,99660.56
2022-12-07T15:49:44.092Z,99668.31
2022-12-07T15:52:10.936Z,99664.41
2022-12-07T15:54:37.634Z,99656.03
2022-12-07T15:57:04.295Z,99659.53
2022-12-07T15:59:31.078Z,99657.09
2022-12-07T16:01:58.148Z,99656.22
2022-12-07T16:04:25.227Z,99650.63
2022-12-07T16:06:52.313Z,99659.63
2022-12-07T16:09:19.838Z,99655.00
2022-12-07T16:11:46.845Z,99653.06
2022-12-07T16:14:14.173Z,99656.91
2022-12-07T16:16:41.469Z,99657.06
2022-12-07T16:19:09.108Z,99656.66
2022-12-07T16:21:36.889Z,99667.84
2022-12-07T16:24:04.593Z,99666.34
2022-12-07T16:26:31.370Z,99664.13
2022-12-07T16:28:58.728Z,99662.88
2022-12-07T16:31:27.548Z,99667.66
2022-12-07T16:33:55.968Z,99662.78
2022-12-07T16:36:55.161Z,99660.72
2022-12-07T16:39:12.103Z,99655.63
2022-12-07T16:41:38.852Z,99649.72
2022-12-07T16:44:07.756Z,99650.34
2022-12-07T16:46:37.219Z,99639.50
2022-12-07T16:49:05.122Z,99651.94
2022-12-07T16:51:32.774Z,99654.63
2022-12-07T16:53:59.907Z,99651.31
2022-12-07T16:56:27.902Z,99636.34
2022-12-07T16:58:55.779Z,99664.69
2022-12-07T17:01:24.116Z,99664.84
2022-12-07T17:03:51.262Z,99664.00
2022-12-07T17:06:20.741Z,99663.34
2022-12-07T17:08:48.271Z,99669.75
2022-12-07T17:11:24.209Z,99676.06
2022-12-07T17:14:09.748Z,99678.75
2022-12-07T17:16:37.018Z,99662.38
2022-12-07T17:19:08.539Z,99668.09
2022-12-07T17:21:36.210Z,99665.97
2022-12-07T17:24:05.652Z,99677.09
2022-12-07T17:26:35.754Z,99673.84
2022-12-07T17:29:08.932Z,99668.94
2022-12-07T17:31:36.565Z,99674.22
2022-12-07T17:34:04.120Z,99673.81
2022-12-07T17:36:33.056Z,99679.78
2022-12-07T17:38:59.791Z,99680.63
2022-12-07T17:41:47.528Z,99683.47
2022-12-07T17:44:17.432Z,99685.13
2022-12-07T17:46:45.629Z,99680.22
2022-12-07T17:49:13.766Z,99682.06
2022-12-07T17:51:59.136Z,99682.47
2022-12-07T17:54:26.102Z,99676.75
2022-12-07T17:56:53.086Z,99672.81
2022-12-07T17:59:20.024Z,99671.56
2022-12-07T18:01:47.063Z,99678.53
2022-12-07T18:04:14.064Z,99674.00
2022-12-07T18:06:40.922Z,99678.13
2022-12-07T18:09:07.924Z,99671.16
2022-12-07T18:11:35.239Z,99677.53
2022-12-07T18:14:02.511Z,99679.63
2022-12-07T18:16:32.984Z,99676.75
2022-12-07T18:19:01.093Z,99682.47
2022-12-07T18:21:29.535Z,99672.03
2022-12-07T18:23:59.224Z,99679.19
2022-12-07T18:26:26.556Z,99683.28
2022-12-07T18:28:53.465Z,99676.34
2022-12-07T18:31:23.068Z,99658.75
2022-12-07T18:33:50.020Z,99677.56
2022-12-07T18:36:17.573Z,99674.03
2022-12-07T18:38:44.680Z,99667.44
2022-12-07T18:41:13.611Z,99680.72
2022-12-07T18:43:41.331Z,99681.16
2022-12-07T18:46:12.545Z,99675.78
2022-12-07T18:48:40.007Z,99689.66
2022-12-07T18:51:08.539Z,99690.69
2022-12-07T18:53:36.124Z,99683.06
2022-12-07T18:56:10.104Z,99683.09
2022-12-07T18:58:36.950Z,99684.84
2022-12-07T19:01:04.085Z,99675.28
2022-12-07T19:03:33.757Z,99674.28
2022-12-07T19:06:07.260Z,99667.94
2022-12-07T19:08:34.967Z,99658.31
2022-12-07T19:11:24.115Z,99665.69
2022-12-07T19:13:51.607Z,99666.25
2022-12-07T19:16:24.553Z,99672.19
2022-12-07T19:18:52.419Z,99669.97
2022-12-07T19:21:19.426Z,99669.94
2022-12-07T19:23:46.114Z,99673.81
2022-12-07T19:26:12.912Z,99674.81
2022-12-07T19:28:39.992Z,99675.81
2022-12-07T19:31:14.041Z,99680.00
2022-12-07T19:33:41.129Z,99663.41
2022-12-07T19:36:08.587Z,99672.44
2022-12-07T19:38:35.570Z,99670.56
2022-12-07T19:41:31.608Z,99673.16
2022-12-07T19:44:03.966Z,99674.56
2022-12-07T19:46:31.956Z,99677.41
2022-12-07T19:49:00.607Z,99673.06
2022-12-07T19:51:28.584Z,99671.00
2022-12-07T19:54:00.403Z,99680.25
2022-12-07T19:56:28.586Z,99689.72
2022-12-07T19:58:56.355Z,99687.31
2022-12-07T20:01:23.192Z,99681.06
2022-12-07T20:03:49.907Z,99681.66
2022-12-07T20:06:19.737Z,99686.16
2022-12-07T20:08:48.301Z,99684.75
2022-12-07T20:11:35.417Z,99670.88
2022-12-07T20:14:02.266Z,99692.50
2022-12-07T20:16:29.081Z,99680.66
2022-12-07T20:18:58.131Z,99676.59
2022-12-07T20:21:25.741Z,99683.34
2022-12-07T20:23:53.102Z,99690.09
2022-12-07T20:26:20.269Z,99684.78
2022-12-07T20:28:47.052Z,99666.03
2022-12-07T20:31:17.800Z,99683.81
2022-12-07T20:33:47.853Z,99680.72
2022-12-07T20:36:17.351Z,99691.22
2022-12-07T20:38:45.153Z,99691.34
2022-12-07T20:41:31.967Z,99691.72
2022-12-07T20:44:00.008Z,99684.59
2022-12-07T20:46:27.019Z,99700.78
2022-12-07T20:48:54.466Z,99697.50
2022-12-07T20:51:21.192Z,99698.78
2022-12-07T20:53:47.839Z,99700.00
2022-12-07T20:56:23.476Z,99693.06
2022-12-07T20:58:50.557Z,99693.84
2022-12-07T21:01:17.835Z,99685.50
2022-12-07T21:03:44.699Z,99698.41
2022-12-07T21:06:16.165Z,99702.06
2022-12-07T21:08:47.109Z,99697.75
2022-12-07T21:11:15.370Z,99690.41
2022-12-07T21:13:42.916Z,99706.59
2022-12-07T21:16:13.979Z,99704.13
2022-12-07T21:18:40.873Z,99708.19
2022-12-07T21:21:09.594Z,99706.16
2022-12-07T21:23:37.031Z,99705.94
2022-12-07T21:26:15.016Z,99702.44
2022-12-07T21:28:41.764Z,99694.75
2022-12-07T21:31:13.368Z,99707.78
2022-12-07T21:33:40.796Z,99691.22
2022-12-07T21:36:09.945Z,99708.84
2022-12-07T21:38:36.862Z,99711.94
2022-12-07T21:41:24.435Z,99708.44
2022-12-07T21:43:52.153Z,99706.16
2022-12-07T21:46:21.012Z,99703.31
2022-12-07T21:48:56.154Z,99704.16
2022-12-07T21:51:24.111Z,99703.13
2022-12-07T21:53:52.596Z,99687.19
2022-12-07T21:56:25.432Z,99708.25
2022-12-07T21:58:53.782Z,99694.72
2022-12-07T22:01:23.453Z,99703.34
2022-12-07T22:03:51.698Z,99695.56
2022-12-07T22:06:20.888Z,99694.56
2022-12-07T22:08:48.088Z,99684.53
2022-12-07T22:11:15.231Z,99696.78
2022-12-07T22:14:06.685Z,99701.50
2022-12-07T22:16:36.889Z,99701.28
2022-12-07T22:19:03.782Z,99694.72
2022-12-07T22:21:31.268Z,99694.72
2022-12-07T22:23:58.035Z,99695.56
2022-12-07T22:26:24.996Z,99694.31
2022-12-07T22:28:51.772Z,99696.38
2022-12-07T22:31:19.912Z,99694.75
2022-12-07T22:33:46.988Z,99705.19
2022-12-07T22:36:14.082Z,99696.38
2022-12-07T22:38:41.882Z,99681.47
2022-12-07T22:41:11.153Z,99698.22
2022-12-07T22:43:38.612Z,99683.28
2022-12-07T22:46:05.874Z,99691.84
2022-12-07T22:48:32.819Z,99701.88
2022-12-07T22:50:59.513Z,99707.00
2022-12-07T22:53:26.467Z,99699.81
2022-12-07T22:55:53.208Z,99697.16
2022-12-07T22:58:20.016Z,99693.06
2022-12-07T23:00:47.336Z,99694.09
2022-12-07T23:03:15.003Z,99694.47
2022-12-07T23:05:44.076Z,99687.13
2022-12-07T23:08:10.959Z,99670.78
2022-12-07T23:10:48.561Z,99694.50
2022-12-07T23:13:32.554Z,99687.97
2022-12-07T23:16:08.382Z,99695.31
2022-12-07T23:18:35.338Z,99693.69
2022-12-07T23:21:02.177Z,99696.56
2022-12-07T23:23:28.856Z,99700.03
2022-12-07T23:25:55.682Z,99689.78
2022-12-07T23:28:22.322Z,99692.66
2022-12-07T23:30:48.931Z,99701.06
2022-12-07T23:33:15.716Z,99704.13
2022-12-07T23:35:42.464Z,99699.63
2022-12-07T23:38:09.084Z,99705.34
2022-12-07T23:40:36.928Z,99709.06
2022-12-07T23:43:03.584Z,99711.47
2022-12-07T23:45:30.208Z,99709.22
2022-12-07T23:47:56.872Z,99711.88
2022-12-07T23:50:23.530Z,99711.69
2022-12-07T23:52:50.158Z,99706.41
2022-12-07T23:55:17.115Z,99709.44
2022-12-07T23:57:43.815Z,99704.13
